Time;durP1;ratioP1;P1;durP2;ratioP2;P2;SDS_P1;SDS_P2;PMS_P1;PMS_P2;Temp;Humidity;BMP_temperature;BMP_pressure;BME280_temperature;BME280_humidity;BME280_pressure;Samples;Min_cycle;Max_cycle;Signal;HPM_P1;HPM_P2
2021/03/10 00:00:56;;;;;;;15.10;7.83;;;;;;;-5.79;57.00;100135.53;345472;115;1961950;-72
2021/03/10 00:02:02;;;;;;;18.32;8.94;;;;;;;-5.81;57.12;100133.92;308746;115;2238976;-72
2021/03/10 00:03:07;;;;;;;17.88;9.72;;;;;;;-5.82;57.06;100129.58;346531;115;1963956;-72
2021/03/10 00:04:13;;;;;;;18.00;8.86;;;;;;;-5.82;56.95;100129.58;345304;115;1962021;-72
2021/03/10 00:05:19;;;;;;;17.26;9.02;;;;;;;-5.83;56.68;100133.16;316087;115;2583014;-72
2021/03/10 00:06:25;;;;;;;17.89;8.66;;;;;;;-5.83;56.86;100125.27;346380;116;1961919;-72
2021/03/10 00:07:32;;;;;;;18.82;9.61;;;;;;;-5.86;56.80;100131.55;346778;115;1961979;-72
2021/03/10 00:08:37;;;;;;;17.87;9.46;;;;;;;-5.87;56.76;100129.88;303767;117;2214635;-72
2021/03/10 00:09:43;;;;;;;20.33;10.71;;;;;;;-5.89;56.73;100131.73;346374;115;1963994;-72
2021/03/10 00:10:50;;;;;;;20.46;9.82;;;;;;;-5.91;56.82;100133.61;318395;110;2571838;-73
2021/03/10 00:11:56;;;;;;;20.04;9.55;;;;;;;-5.92;56.86;100129.30;321052;118;1962878;-72
2021/03/10 00:13:01;;;;;;;17.76;9.31;;;;;;;-5.93;56.69;100134.66;345742;113;1964946;-73
2021/03/10 00:14:06;;;;;;;18.21;9.69;;;;;;;-5.94;56.84;100127.72;350408;113;1961923;-73
2021/03/10 00:15:14;;;;;;;19.09;9.56;;;;;;;-5.97;56.82;100129.59;348039;113;1964014;-72
2021/03/10 00:16:21;;;;;;;17.86;9.07;;;;;;;-5.97;56.87;100128.75;349549;114;1961959;-71
2021/03/10 00:17:27;;;;;;;19.68;9.83;;;;;;;-5.97;56.82;100137.48;334632;113;2218949;-72
2021/03/10 00:18:33;;;;;;;19.81;9.94;;;;;;;-5.98;56.71;100130.53;349969;113;1962006;-72
2021/03/10 00:19:41;;;;;;;20.92;10.04;;;;;;;-5.98;56.65;100127.91;350361;113;1961931;-72
2021/03/10 00:20:49;;;;;;;19.35;9.62;;;;;;;-5.98;56.64;100122.64;315898;111;2715956;-72
2021/03/10 00:21:54;;;;;;;17.06;8.36;;;;;;;-5.97;56.59;100123.48;324457;113;1963789;-73
2021/03/10 00:23:00;;;;;;;17.68;9.02;;;;;;;-5.98;56.55;100130.53;349402;114;1962021;-73
2021/03/10 00:24:05;;;;;;;19.30;8.09;;;;;;;-5.98;56.57;100127.91;349800;114;1962983;-71
2021/03/10 00:25:12;;;;;;;19.26;8.64;;;;;;;-5.99;56.49;100126.19;350086;114;1961943;-72
2021/03/10 00:26:18;;;;;;;19.64;8.41;;;;;;;-5.99;56.24;100118.30;350468;114;1964931;-72
2021/03/10 00:27:26;;;;;;;18.94;7.38;;;;;;;-6.00;56.33;100119.25;348007;114;1961926;-71
2021/03/10 00:28:31;;;;;;;15.17;7.80;;;;;;;-6.00;56.25;100124.51;350271;114;1964977;-71
2021/03/10 00:29:36;;;;;;;17.30;7.68;;;;;;;-6.02;56.18;100115.86;350948;114;1961949;-72
2021/03/10 00:30:43;;;;;;;18.55;7.88;;;;;;;-6.02;56.12;100120.27;310499;113;2785032;-72
2021/03/10 00:31:49;;;;;;;20.70;7.48;;;;;;;-6.02;56.01;100117.64;339137;114;1962034;-73
2021/03/10 00:32:54;;;;;;;14.90;7.75;;;;;;;-6.02;56.18;100112.38;350033;114;1963990;-72
2021/03/10 00:34:01;;;;;;;19.27;7.98;;;;;;;-6.01;56.10;100111.44;328331;114;2213941;-72
2021/03/10 00:35:08;;;;;;;19.01;8.52;;;;;;;-6.02;56.02;100112.38;335731;114;1961963;-72
2021/03/10 00:36:14;;;;;;;14.86;8.24;;;;;;;-6.04;55.90;100112.46;349711;114;1962043;-72
2021/03/10 00:37:20;;;;;;;16.84;7.81;;;;;;;-6.06;55.90;100116.98;330855;114;2373038;-71
2021/03/10 00:38:26;;;;;;;15.68;7.55;;;;;;;-6.07;55.83;100117.91;350447;114;1961991;-72
2021/03/10 00:39:47;;;;;;;16.88;8.09;;;;;;;-6.09;55.90;100117.14;350038;114;1963030;-72
2021/03/10 00:40:54;;;;;;;14.27;6.44;;;;;;;-6.10;55.98;100119.88;344129;116;1962944;-72
2021/03/10 00:42:00;;;;;;;13.69;6.67;;;;;;;-6.10;55.94;100118.09;339517;116;1962014;-72
2021/03/10 00:43:06;;;;;;;15.51;6.49;;;;;;;-6.11;55.86;100116.41;318569;116;2463968;-73
2021/03/10 00:44:11;;;;;;;13.41;6.86;;;;;;;-6.12;55.88;100119.95;330638;114;1961760;-72
2021/03/10 00:45:16;;;;;;;14.61;7.37;;;;;;;-6.12;55.87;100119.11;349544;114;1962939;-71
2021/03/10 00:46:22;;;;;;;13.41;6.34;;;;;;;-6.15;55.92;100120.13;349479;113;1964083;-72
2021/03/10 00:47:38;;;;;;;17.97;6.38;;;;;;;-6.14;55.99;100121.81;338458;114;2230909;-71
2021/03/10 00:48:44;;;;;;;20.63;7.78;;;;;;;-6.16;55.92;100118.45;349192;114;1961965;-71
2021/03/10 00:49:50;;;;;;;13.24;6.09;;;;;;;-6.13;56.06;100112.17;350648;113;1962923;-71
2021/03/10 00:50:56;;;;;;;16.19;6.25;;;;;;;-6.15;55.99;100116.66;323518;114;2198861;-71
2021/03/10 00:52:02;;;;;;;17.40;5.82;;;;;;;-6.16;55.96;100113.19;338935;116;1962000;-71
2021/03/10 00:53:07;;;;;;;18.25;6.63;;;;;;;-6.18;55.89;100109.80;345324;114;1961048;-71
2021/03/10 00:54:12;;;;;;;15.44;6.73;;;;;;;-6.20;55.93;100117.77;344622;116;1963698;-71
2021/03/10 00:55:18;;;;;;;11.09;5.58;;;;;;;-6.18;56.10;100112.42;322381;116;2479965;-72
2021/03/10 00:56:26;;;;;;;15.46;6.38;;;;;;;-6.17;56.18;100119.37;345995;116;1962000;-71
2021/03/10 00:57:31;;;;;;;15.87;6.65;;;;;;;-6.15;56.29;100114.87;319521;116;2556924;-72
2021/03/10 00:58:37;;;;;;;13.51;7.32;;;;;;;-6.14;56.33;100115.71;324051;117;1963852;-72
2021/03/10 00:59:42;;;;;;;11.58;5.89;;;;;;;-6.14;56.33;100115.71;343452;115;1962014;-72
2021/03/10 01:00:50;;;;;;;14.39;6.81;;;;;;;-6.13;56.32;100117.42;303707;117;2164048;-72
2021/03/10 01:01:55;;;;;;;12.60;6.39;;;;;;;-6.13;56.33;100113.01;342789;117;1961878;-72
2021/03/10 01:03:02;;;;;;;16.11;6.80;;;;;;;-6.13;56.13;100114.80;342565;115;1962013;-72
2021/03/10 01:04:10;;;;;;;16.92;6.61;;;;;;;-6.15;56.01;100117.50;342938;117;1964051;-71
2021/03/10 01:05:16;;;;;;;18.09;6.84;;;;;;;-6.15;55.87;100119.30;342346;117;1961953;-72
2021/03/10 01:06:24;;;;;;;11.66;6.47;;;;;;;-6.16;55.88;100114.98;342658;115;1961973;-71
2021/03/10 01:07:31;;;;;;;12.67;5.72;;;;;;;-6.17;55.76;100119.37;319682;117;2866941;-72
2021/03/10 01:08:36;;;;;;;13.08;6.18;;;;;;;-6.17;56.01;100108.01;340530;115;1963968;-72
2021/03/10 01:09:41;;;;;;;13.90;6.04;;;;;;;-6.19;55.82;100108.11;339348;116;1961941;-72
2021/03/10 01:10:48;;;;;;;13.44;5.82;;;;;;;-6.20;55.66;100111.66;340059;117;1962976;-71
2021/03/10 01:11:53;;;;;;;14.93;5.41;;;;;;;-6.21;55.83;100104.72;305423;117;2151367;-72
2021/03/10 01:12:59;;;;;;;14.54;5.89;;;;;;;-6.22;55.77;100113.52;343036;117;1963965;-72
2021/03/10 01:14:04;;;;;;;12.69;5.58;;;;;;;-6.22;55.65;100110.89;343764;117;1961974;-71
2021/03/10 01:15:13;;;;;;;13.34;5.38;;;;;;;-6.22;55.67;100100.38;342880;115;1962015;-71
2021/03/10 01:16:19;;;;;;;10.29;5.11;;;;;;;-6.22;55.79;100108.27;342022;117;1962041;-72
2021/03/10 01:17:24;;;;;;;11.54;5.77;;;;;;;-6.24;55.83;100108.37;328052;115;2215018;-71
2021/03/10 01:18:30;;;;;;;11.33;5.81;;;;;;;-6.24;55.76;100107.53;341283;117;1962085;-73
2021/03/10 01:19:36;;;;;;;12.60;5.54;;;;;;;-6.24;55.72;100115.42;342935;117;1965012;-71
2021/03/10 01:20:42;;;;;;;13.86;6.51;;;;;;;-6.25;55.74;100111.08;326101;117;2389766;-71
2021/03/10 01:21:47;;;;;;;12.24;6.77;;;;;;;-6.27;55.87;100111.18;321373;117;1961884;-72
2021/03/10 01:22:52;;;;;;;10.48;5.52;;;;;;;-6.27;55.88;100107.68;341895;115;1961979;-72
2021/03/10 01:23:58;;;;;;;15.45;6.51;;;;;;;-6.26;55.91;100109.39;342305;117;1961939;-72
2021/03/10 01:25:05;;;;;;;12.90;5.99;;;;;;;-6.28;56.14;100109.47;343912;117;1961931;-72
2021/03/10 01:26:10;;;;;;;16.30;5.83;;;;;;;-6.27;56.32;100107.68;343131;117;1961750;-72
2021/03/10 01:27:17;;;;;;;12.17;5.88;;;;;;;-6.37;56.38;100098.66;341986;117;1960821;-72
2021/03/10 01:28:23;;;;;;;11.69;5.33;;;;;;;-6.30;56.43;100111.33;322574;115;2211855;-72
2021/03/10 01:29:28;;;;;;;17.96;5.70;;;;;;;-6.30;56.27;100118.37;340333;117;1961974;-72
2021/03/10 01:30:33;;;;;;;12.17;5.67;;;;;;;-6.29;56.36;100106.95;344947;115;1963948;-71
2021/03/10 01:31:39;;;;;;;13.03;5.72;;;;;;;-6.31;56.41;100114.91;342810;117;1962010;-74
2021/03/10 01:32:45;;;;;;;11.03;4.88;;;;;;;-6.30;56.53;100108.70;330708;117;2276026;-71
2021/03/10 01:33:50;;;;;;;14.69;5.92;;;;;;;-6.29;56.66;100118.30;342034;115;1964966;-72
2021/03/10 01:34:56;;;;;;;12.73;4.97;;;;;;;-6.29;56.46;100120.93;335540;120;1962965;-72
2021/03/10 01:36:02;;;;;;;13.88;5.00;;;;;;;-6.29;56.47;100112.20;334927;120;1963976;-71
2021/03/10 01:37:08;;;;;;;11.14;4.92;;;;;;;-6.31;56.35;100114.91;312082;120;1963000;-71
2021/03/10 01:38:13;;;;;;;10.28;4.86;;;;;;;-6.30;56.35;100107.86;331785;121;1962042;-72
2021/03/10 01:39:19;;;;;;;12.01;5.95;;;;;;;-6.30;56.44;100108.70;339076;116;1963951;-71
2021/03/10 01:40:25;;;;;;;12.43;5.07;;;;;;;-6.31;56.56;100120.16;312625;119;2221997;-72
2021/03/10 01:41:43;;;;;;;13.43;5.49;;;;;;;-6.30;56.63;100108.70;335543;117;1962168;-72
2021/03/10 01:42:48;;;;;;;11.16;5.35;;;;;;;-6.28;56.60;100113.89;325041;116;2223987;-72
2021/03/10 01:43:53;;;;;;;19.04;5.52;;;;;;;-6.27;56.73;100108.55;322655;110;1962029;-72
2021/03/10 01:44:59;;;;;;;14.75;6.36;;;;;;;-6.26;56.97;100109.39;360690;110;1961945;-72
2021/03/10 01:46:04;;;;;;;9.03;5.55;;;;;;;-6.23;57.00;100111.84;361826;108;1963998;-72
2021/03/10 01:47:10;;;;;;;11.68;5.67;;;;;;;-6.23;56.93;100111.84;366745;110;1961948;-72
2021/03/10 01:48:19;;;;;;;12.32;5.47;;;;;;;-6.23;57.21;100114.47;342083;108;1961702;-71
2021/03/10 01:49:25;;;;;;;15.61;5.93;;;;;;;-6.26;57.31;100107.61;328997;108;2100463;-71
2021/03/10 01:50:33;;;;;;;11.12;5.99;;;;;;;-6.27;57.37;100108.55;366025;108;1961986;-72
2021/03/10 01:51:38;;;;;;;12.74;5.87;;;;;;;-6.28;57.29;100111.26;332442;108;1988543;-72
2021/03/10 01:52:44;;;;;;;12.42;5.46;;;;;;;-6.32;57.25;100115.02;366212;108;1961861;-72
2021/03/10 01:53:50;;;;;;;14.94;5.87;;;;;;;-6.33;57.26;100116.77;369022;108;1961939;-72
2021/03/10 01:54:56;;;;;;;15.01;6.16;;;;;;;-6.34;57.63;100115.09;343714;110;2466939;-72
2021/03/10 01:56:02;;;;;;;17.00;6.58;;;;;;;-6.34;57.65;100119.50;363519;110;1961947;-72
2021/03/10 01:57:08;;;;;;;13.55;6.41;;;;;;;-6.33;57.69;100118.55;362905;109;1963092;-72
2021/03/10 01:58:14;;;;;;;14.09;6.29;;;;;;;-6.35;57.51;100116.03;324037;112;2649008;-72
2021/03/10 01:59:19;;;;;;;15.73;7.23;;;;;;;-6.35;57.49;100117.79;343813;112;1965009;-71
2021/03/10 02:00:29;;;;;;;12.13;5.83;;;;;;;-6.53;57.50;100088.17;331463;112;2856916;-71
2021/03/10 02:01:34;;;;;;;17.25;7.27;;;;;;;-6.40;57.66;100110.19;362309;109;1960957;-71
2021/03/10 02:02:41;;;;;;;19.81;6.39;;;;;;;-6.40;57.90;100115.45;341271;109;2832866;-71
2021/03/10 02:03:48;;;;;;;16.03;5.92;;;;;;;-6.41;57.97;100114.57;360412;109;1960882;-71
2021/03/10 02:04:56;;;;;;;14.16;5.96;;;;;;;-6.39;57.80;100116.29;332942;112;1962058;-71
2021/03/10 02:06:01;;;;;;;12.02;6.14;;;;;;;-6.39;57.61;100121.55;351604;112;1961931;-71
2021/03/10 02:07:30;;;;;;;13.12;5.62;;;;;;;-6.40;57.64;100123.33;354994;113;1962904;-71
2021/03/10 02:08:52;;;;;;;12.99;6.18;;;;;;;-6.42;57.77;100118.15;345951;116;1962012;-72
2021/03/10 02:10:01;;;;;;;13.16;6.25;;;;;;;-6.43;58.01;100128.73;321571;116;1961960;-72
2021/03/10 02:11:21;;;;;;;14.02;6.42;;;;;;;-6.45;58.14;100120.95;312195;116;2236960;-72
2021/03/10 02:13:05;;;;;;;15.21;6.24;;;;;;;-6.46;57.98;100132.38;338540;118;1961998;-72
2021/03/10 02:14:21;;;;;;;13.28;6.08;;;;;;;-6.48;57.94;100123.77;339411;118;1964021;-71
2021/03/10 02:15:51;;;;;;;15.15;6.50;;;;;;;-6.49;57.74;100127.30;329821;122;1961987;-72
2021/03/10 02:17:00;;;;;;;15.84;7.07;;;;;;;-6.50;57.57;100119.52;316144;116;2220967;-73
2021/03/10 02:18:13;;;;;;;12.30;5.68;;;;;;;-6.51;57.72;100125.70;329454;116;2370943;-72
2021/03/10 02:19:42;;;;;;;12.28;6.44;;;;;;;-6.52;57.84;100116.97;334730;118;1964034;-72
2021/03/10 02:20:53;;;;;;;15.62;7.08;;;;;;;-6.53;57.71;100117.08;305742;114;2835030;-71
2021/03/10 02:22:08;;;;;;;17.43;6.36;;;;;;;-6.51;57.85;100123.94;319232;114;2587052;-71
2021/03/10 02:23:37;;;;;;;17.92;7.77;;;;;;;-6.49;57.73;100123.83;331137;113;1962040;-73
2021/03/10 02:25:03;;;;;;;15.41;6.44;;;;;;;-6.50;57.63;100130.88;327233;114;2204960;-71
2021/03/10 02:26:33;;;;;;;15.29;6.21;;;;;;;-6.52;57.76;100127.48;350827;112;1962113;-71
2021/03/10 02:27:55;;;;;;;18.46;8.02;;;;;;;-6.52;57.57;100122.22;351099;114;1962009;-71
2021/03/10 02:29:07;;;;;;;15.42;7.13;;;;;;;-6.55;57.81;100119.77;349391;114;1962033;-71
2021/03/10 02:30:28;;;;;;;16.93;6.76;;;;;;;-6.53;57.82;100124.95;318348;114;1989482;-72
2021/03/10 02:31:37;;;;;;;19.07;7.47;;;;;;;-6.53;57.91;100124.95;353647;112;1961979;-71
2021/03/10 02:32:46;;;;;;;15.29;7.18;;;;;;;-6.55;57.95;100119.77;334316;115;1962039;-72
2021/03/10 02:33:52;;;;;;;13.76;7.22;;;;;;;-6.56;57.83;100118.09;339221;115;1961986;-72
2021/03/10 02:35:01;;;;;;;15.20;7.49;;;;;;;-6.56;57.90;100123.34;351222;113;1964018;-72
2021/03/10 02:36:10;;;;;;;17.47;7.74;;;;;;;-6.56;57.94;100117.22;352800;113;1964991;-72
2021/03/10 02:37:16;;;;;;;16.01;6.66;;;;;;;-6.55;57.77;100122.41;352329;113;1965006;-72
2021/03/10 02:38:25;;;;;;;18.36;7.53;;;;;;;-6.55;57.97;100124.19;350451;113;1961968;-72
2021/03/10 02:39:32;;;;;;;16.56;7.06;;;;;;;-6.54;57.91;100116.20;354345;106;1960881;-72
2021/03/10 02:40:40;;;;;;;15.97;7.79;;;;;;;-6.53;57.81;100124.95;357783;111;1961917;-72
2021/03/10 02:41:46;;;;;;;15.77;7.53;;;;;;;-6.53;57.82;100120.55;317621;110;2774942;-72
2021/03/10 02:42:53;;;;;;;18.99;7.70;;;;;;;-6.52;57.88;100114.34;338239;119;1962028;-72
2021/03/10 02:44:02;;;;;;;19.98;8.13;;;;;;;-6.52;57.74;100113.50;301205;116;2950059;-71
2021/03/10 02:45:10;;;;;;;20.30;8.98;;;;;;;-6.51;57.91;100123.94;354550;114;1961923;-71
2021/03/10 02:46:17;;;;;;;20.89;8.30;;;;;;;-6.51;57.99;100121.31;353107;112;1964909;-71
2021/03/10 02:47:35;;;;;;;15.53;7.21;;;;;;;-6.50;58.10;100120.36;319127;113;2046286;-72
2021/03/10 02:48:44;;;;;;;19.76;8.49;;;;;;;-6.51;58.13;100113.42;315456;114;2926910;-73
2021/03/10 02:49:51;;;;;;;15.77;7.89;;;;;;;-6.51;57.98;100117.81;355271;114;1962967;-72
2021/03/10 02:50:56;;;;;;;17.83;8.11;;;;;;;-6.53;57.88;100111.81;353046;113;1962030;-72
2021/03/10 02:52:02;;;;;;;23.07;9.61;;;;;;;-6.54;57.89;100117.98;343131;116;1963837;-72
2021/03/10 02:53:09;;;;;;;21.99;9.38;;;;;;;-6.55;57.95;100116.30;335222;117;2858967;-72
2021/03/10 02:54:16;;;;;;;18.43;8.97;;;;;;;-6.56;58.08;100114.59;344252;116;1962042;-72
2021/03/10 02:55:22;;;;;;;18.87;8.93;;;;;;;-6.55;58.03;100121.56;317382;116;2541935;-72
2021/03/10 02:56:28;;;;;;;20.17;8.76;;;;;;;-6.54;57.93;100117.98;344186;116;1962023;-72
2021/03/10 02:57:42;;;;;;;21.12;9.44;;;;;;;-6.52;57.94;100116.13;343274;116;1961989;-72
2021/03/10 02:58:58;;;;;;;25.68;9.26;;;;;;;-6.52;57.88;100122.22;361680;110;1962962;-72
2021/03/10 03:00:07;;;;;;;22.79;9.43;;;;;;;-6.51;57.64;100115.18;310685;114;2776059;-71
2021/03/10 03:01:23;;;;;;;15.38;7.52;;;;;;;-6.51;57.57;100113.42;314865;114;2643015;-72
2021/03/10 03:02:29;;;;;;;30.97;10.32;;;;;;;-6.52;57.62;100116.13;346675;114;1962019;-72
2021/03/10 03:03:36;;;;;;;14.70;6.43;;;;;;;-6.51;57.65;100116.05;348010;114;1961992;-72
2021/03/10 03:04:41;;;;;;;19.57;8.33;;;;;;;-6.52;57.72;100114.34;327633;114;2237018;-71
2021/03/10 03:05:49;;;;;;;13.46;7.00;;;;;;;-6.51;57.76;100123.06;349202;114;1963956;-72
2021/03/10 03:07:05;;;;;;;16.35;7.02;;;;;;;-6.51;57.80;100118.69;308587;114;2151523;-72
2021/03/10 03:08:14;;;;;;;16.51;7.47;;;;;;;-6.51;57.70;100121.31;345587;115;1962009;-72
2021/03/10 03:09:19;;;;;;;21.97;8.79;;;;;;;-6.51;57.65;100121.31;344444;115;1962926;-72
2021/03/10 03:10:31;;;;;;;16.76;8.15;;;;;;;-6.50;57.67;100122.16;298928;117;2871084;-72
2021/03/10 03:11:37;;;;;;;17.78;7.63;;;;;;;-6.50;57.68;100119.52;312564;117;2562972;-72
2021/03/10 03:12:44;;;;;;;18.77;7.94;;;;;;;-6.51;57.70;100121.31;339783;117;1961940;-72
2021/03/10 03:13:51;;;;;;;20.49;7.93;;;;;;;-6.50;57.57;100124.78;349517;114;1961954;-72
2021/03/10 03:14:58;;;;;;;14.66;8.09;;;;;;;-6.51;57.58;100115.18;350362;114;1961887;-72
2021/03/10 03:16:04;;;;;;;17.19;6.74;;;;;;;-6.51;57.46;100118.69;324131;114;2539040;-72
2021/03/10 03:17:12;;;;;;;15.66;7.22;;;;;;;-6.50;57.46;100120.36;345850;115;1962992;-72
2021/03/10 03:18:17;;;;;;;16.70;6.86;;;;;;;-6.48;57.40;100125.55;336564;114;2244424;-71
2021/03/10 03:19:24;;;;;;;14.64;7.06;;;;;;;-6.47;57.29;100122.81;352187;114;1962017;-72
2021/03/10 03:20:31;;;;;;;15.42;7.31;;;;;;;-6.46;57.49;100119.24;305371;116;2806046;-72
2021/03/10 03:21:36;;;;;;;14.49;7.01;;;;;;;-6.45;57.55;100123.58;332966;116;1961756;-72
2021/03/10 03:22:48;;;;;;;12.77;6.71;;;;;;;-6.44;57.37;100121.80;344027;116;1962013;-72
2021/03/10 03:23:55;;;;;;;14.66;6.76;;;;;;;-6.45;57.31;100128.84;327464;114;2229991;-71
2021/03/10 03:25:00;;;;;;;14.17;5.87;;;;;;;-6.43;57.13;100123.48;346422;115;1962021;-73
2021/03/10 03:26:07;;;;;;;12.29;5.71;;;;;;;-6.44;57.12;100116.54;349198;113;1961977;-72
2021/03/10 03:27:25;;;;;;;11.36;5.75;;;;;;;-6.42;57.02;100125.19;314059;113;2121827;-72
2021/03/10 03:28:24;;;;;;;12.31;6.71;;;;;;;-6.43;56.94;100120.84;328825;113;2839749;-72
2021/03/10 03:29:31;;;;;;;14.16;5.82;;;;;;;-6.43;56.95;100120.84;344315;116;1961990;-72
2021/03/10 03:30:39;;;;;;;15.38;7.34;;;;;;;-6.42;56.95;100131.29;344919;116;1962113;-72
2021/03/10 03:31:46;;;;;;;12.48;6.10;;;;;;;-6.41;56.84;100119.83;341236;116;1961988;-72
2021/03/10 03:32:54;;;;;;;14.29;6.14;;;;;;;-6.41;56.94;100126.88;335814;116;2873003;-72
2021/03/10 03:34:04;;;;;;;12.77;5.66;;;;;;;-6.41;56.99;100129.50;342169;116;1962077;-72
2021/03/10 03:35:11;;;;;;;14.23;5.42;;;;;;;-6.44;56.88;100127.05;343922;116;1962052;-71
2021/03/10 03:36:21;;;;;;;14.63;6.53;;;;;;;-6.44;57.00;100125.27;318539;115;2575995;-73
2021/03/10 03:37:26;;;;;;;15.58;6.20;;;;;;;-6.44;57.02;100127.05;348599;114;1961995;-71
2021/03/10 03:38:32;;;;;;;16.59;6.00;;;;;;;-6.45;57.18;100128.84;344760;116;1962006;-72
2021/03/10 03:39:38;;;;;;;12.89;6.02;;;;;;;-6.45;57.19;100133.25;335317;116;2895927;-71
2021/03/10 03:40:46;;;;;;;17.13;6.99;;;;;;;-6.45;57.09;100130.62;344058;115;1961830;-72
2021/03/10 03:41:52;;;;;;;14.59;5.77;;;;;;;-6.46;57.15;100134.17;327126;116;2406921;-72
2021/03/10 03:42:58;;;;;;;15.26;5.88;;;;;;;-6.47;57.18;100129.86;341469;116;1961750;-72
2021/03/10 03:44:04;;;;;;;14.84;6.09;;;;;;;-6.48;57.33;100131.64;343211;116;1962060;-71
2021/03/10 03:45:10;;;;;;;11.80;5.84;;;;;;;-6.48;57.22;100131.64;341829;116;1965031;-71
2021/03/10 03:46:15;;;;;;;13.21;5.48;;;;;;;-6.49;57.24;100122.05;343747;115;1962011;-71
2021/03/10 03:47:35;;;;;;;20.14;6.62;;;;;;;-6.49;57.12;100129.09;341970;115;1961903;-71
2021/03/10 03:48:42;;;;;;;17.89;6.67;;;;;;;-6.50;57.22;100130.88;342270;116;1961930;-71
2021/03/10 03:49:47;;;;;;;12.74;5.71;;;;;;;-6.50;57.50;100122.16;329268;117;2248780;-71
2021/03/10 03:50:54;;;;;;;17.92;6.39;;;;;;;-6.50;57.41;100133.50;339303;119;1960965;-72
2021/03/10 03:51:59;;;;;;;16.49;6.69;;;;;;;-6.51;57.58;100128.33;335440;119;1964002;-71
2021/03/10 03:53:05;;;;;;;20.25;9.23;;;;;;;-6.51;57.57;100125.70;310277;119;2558935;-71
2021/03/10 03:54:11;;;;;;;12.92;6.55;;;;;;;-6.52;57.72;100135.36;321337;119;1963055;-71
2021/03/10 03:55:16;;;;;;;18.17;7.07;;;;;;;-6.53;57.67;100128.42;331715;120;1962025;-72
2021/03/10 03:56:23;;;;;;;27.09;7.44;;;;;;;-6.53;57.58;100130.22;301239;117;2821944;-71
2021/03/10 03:57:28;;;;;;;14.24;7.63;;;;;;;-6.54;57.72;100133.75;337410;117;1961966;-71
2021/03/10 03:58:33;;;;;;;16.00;7.43;;;;;;;-6.55;57.75;100132.08;333435;121;1961971;-71
2021/03/10 03:59:40;;;;;;;13.52;5.93;;;;;;;-6.56;57.72;100128.60;338968;119;1962982;-72
2021/03/10 04:00:46;;;;;;;16.43;6.18;;;;;;;-6.57;57.68;100131.30;324296;117;1961085;-73
2021/03/10 04:01:52;;;;;;;16.82;7.23;;;;;;;-6.57;57.89;100128.67;338731;117;1962959;-72
2021/03/10 04:02:57;;;;;;;20.31;7.18;;;;;;;-6.58;57.86;100127.84;339398;119;1961831;-72
2021/03/10 04:04:03;;;;;;;17.60;7.27;;;;;;;-6.57;57.92;100129.52;303869;117;2217804;-72
2021/03/10 04:05:10;;;;;;;18.62;7.21;;;;;;;-6.57;57.95;100128.67;335139;119;1963367;-73
2021/03/10 04:06:18;;;;;;;18.57;6.78;;;;;;;-6.59;57.97;100131.38;335254;119;1961936;-72
2021/03/10 04:07:24;;;;;;;22.11;7.37;;;;;;;-6.58;58.08;100134.88;339990;117;1962909;-72
2021/03/10 04:08:30;;;;;;;20.74;8.14;;;;;;;-6.59;58.10;100128.75;294637;120;2774930;-72
2021/03/10 04:09:35;;;;;;;17.88;7.98;;;;;;;-6.61;58.00;100128.01;319001;117;1962011;-71
2021/03/10 04:10:41;;;;;;;20.56;7.78;;;;;;;-6.61;58.23;100128.01;339168;117;1962048;-72
2021/03/10 04:11:48;;;;;;;20.32;9.25;;;;;;;-6.60;58.15;100123.59;337346;117;1961908;-72
2021/03/10 04:12:54;;;;;;;17.99;8.94;;;;;;;-6.62;58.11;100123.67;320231;117;1966931;-72
2021/03/10 04:13:59;;;;;;;26.38;8.89;;;;;;;-6.64;58.37;100118.52;339562;117;1962033;-72
2021/03/10 04:15:05;;;;;;;19.24;9.04;;;;;;;-6.62;58.34;100128.08;337338;115;1960688;-71
2021/03/10 04:16:11;;;;;;;19.18;8.48;;;;;;;-6.64;58.33;100128.19;336893;112;1963401;-72
2021/03/10 04:17:18;;;;;;;24.23;7.52;;;;;;;-6.66;58.46;100124.79;352670;114;1962028;-72
2021/03/10 04:18:24;;;;;;;18.14;7.54;;;;;;;-6.68;58.68;100122.23;338264;112;2225021;-73
2021/03/10 04:19:29;;;;;;;18.66;8.08;;;;;;;-6.67;58.66;100125.70;342310;114;1961926;-71
2021/03/10 04:20:35;;;;;;;16.21;7.99;;;;;;;-6.67;58.63;100128.33;354833;112;1961907;-72
2021/03/10 04:21:40;;;;;;;26.36;8.92;;;;;;;-6.68;58.73;100126.64;350782;113;1961943;-72
2021/03/10 04:22:46;;;;;;;23.72;8.38;;;;;;;-6.67;58.78;100128.33;327670;115;2441012;-72
2021/03/10 04:23:51;;;;;;;27.97;10.19;;;;;;;-6.68;58.69;100129.27;348020;113;1960781;-73
2021/03/10 04:24:57;;;;;;;24.11;9.31;;;;;;;-6.68;58.67;100134.53;350206;110;1960747;-73
2021/03/10 04:26:03;;;;;;;27.02;12.00;;;;;;;-6.67;58.73;100130.95;350716;113;1960836;-72
2021/03/10 04:27:08;;;;;;;29.83;8.51;;;;;;;-6.67;58.80;100128.33;330169;113;2427876;-72
2021/03/10 04:28:13;;;;;;;19.19;9.01;;;;;;;-6.67;58.78;100129.20;338178;115;1960786;-72
2021/03/10 04:29:18;;;;;;;29.28;10.84;;;;;;;-6.66;58.72;100133.52;350923;113;1960864;-72
2021/03/10 04:30:25;;;;;;;26.75;8.61;;;;;;;-6.65;58.69;100135.20;349006;113;1960763;-72
2021/03/10 04:31:30;;;;;;;22.69;9.89;;;;;;;-6.63;58.52;100129.87;323803;113;2571938;-72
2021/03/10 04:32:36;;;;;;;31.24;10.21;;;;;;;-6.59;58.61;100130.53;344384;113;1960721;-72
2021/03/10 04:33:41;;;;;;;29.66;10.72;;;;;;;-6.59;58.73;100136.63;349930;115;1961001;-73
2021/03/10 04:34:47;;;;;;;48.82;12.97;;;;;;;-6.58;58.98;100137.50;347728;115;1962031;-72
2021/03/10 04:35:52;;;;;;;33.46;12.00;;;;;;;-6.56;59.03;100136.48;318948;113;2641034;-72
2021/03/10 04:37:00;;;;;;;26.78;8.74;;;;;;;-6.54;59.06;100136.38;348844;114;1961908;-72
2021/03/10 04:38:06;;;;;;;23.16;8.92;;;;;;;-6.53;58.86;100136.31;328028;113;2444325;-72
2021/03/10 04:39:11;;;;;;;29.84;10.68;;;;;;;-6.51;58.84;100137.08;324497;113;1963936;-72
2021/03/10 04:40:19;;;;;;;24.81;10.34;;;;;;;-6.49;58.79;100136.98;350371;113;1962015;-72
2021/03/10 04:41:24;;;;;;;23.96;9.85;;;;;;;-6.49;58.81;100137.81;313597;114;2098903;-72
2021/03/10 04:42:30;;;;;;;39.36;10.98;;;;;;;-6.49;58.89;100137.81;349581;113;1965092;-72
2021/03/10 04:43:35;;;;;;;18.18;8.86;;;;;;;-6.48;58.89;100138.69;348974;113;1961922;-72
2021/03/10 04:44:41;;;;;;;26.68;11.05;;;;;;;-6.46;58.89;100135.02;348689;113;1961983;-73
2021/03/10 04:45:46;;;;;;;28.36;11.92;;;;;;;-6.46;58.88;100137.64;323566;113;2554016;-72
2021/03/10 04:46:52;;;;;;;21.88;11.42;;;;;;;-6.45;58.99;100136.73;350720;113;1960989;-73
2021/03/10 04:47:57;;;;;;;23.37;11.16;;;;;;;-6.42;58.89;100143.59;350032;113;1962005;-72
2021/03/10 04:49:03;;;;;;;31.19;11.76;;;;;;;-6.39;58.87;100140.78;349143;113;1963966;-72
2021/03/10 04:50:11;;;;;;;23.65;11.22;;;;;;;-6.38;58.75;100142.47;319291;113;1964043;-73
2021/03/10 04:51:16;;;;;;;23.92;10.96;;;;;;;-6.35;58.73;100142.32;353477;113;1963966;-72
2021/03/10 04:52:22;;;;;;;25.83;9.74;;;;;;;-6.33;58.70;100139.59;325833;113;2503928;-72
2021/03/10 04:53:27;;;;;;;29.66;11.40;;;;;;;-6.31;58.46;100133.31;337259;113;1961958;-72
2021/03/10 04:54:32;;;;;;;25.78;10.75;;;;;;;-6.27;58.49;100145.36;350457;113;1961975;-72
2021/03/10 04:55:39;;;;;;;28.15;10.71;;;;;;;-6.24;58.46;100139.92;349134;115;1961908;-72
2021/03/10 04:56:46;;;;;;;30.69;9.71;;;;;;;-6.21;58.45;100142.37;348935;113;1962030;-72
2021/03/10 04:57:52;;;;;;;21.64;10.12;;;;;;;-6.17;58.24;100143.03;348817;114;1963953;-72
2021/03/10 04:58:58;;;;;;;28.62;10.75;;;;;;;-6.14;58.17;100148.11;320682;114;2575015;-72
2021/03/10 05:00:05;;;;;;;29.02;11.93;;;;;;;-6.12;58.17;100140.14;337142;113;1962645;-72
2021/03/10 05:01:11;;;;;;;22.91;8.61;;;;;;;-6.09;58.16;100139.97;327560;113;2865916;-72
2021/03/10 05:02:17;;;;;;;24.13;10.16;;;;;;;-6.05;57.91;100138.87;350139;113;1962062;-72
2021/03/10 05:03:24;;;;;;;26.41;9.78;;;;;;;-6.02;57.85;100147.41;349690;113;1962006;-72
2021/03/10 05:04:29;;;;;;;27.72;11.51;;;;;;;-6.00;57.78;100148.18;328441;113;2228972;-73